Terminal Aerodrome Forecast
Issued by NWS

Home | Current Version | Previous Version | Text Only | Print | Product List | Glossary On
Versions: 1 2 3 4 5 6 7 8 9 10 11 12 13 14 15 16 17 18
491
FTUS42 TJSJ 261736
TAFIST
TAF
TIST 261736Z 2618/2718 12009KT P6SM VCSH SCT025 SCT045
      TEMPO 2618/2621 VRB15KT 5SM TSRA BKN030CB
     FM262300 09007KT P6SM SCT025 SCT040
     FM271300 13012KT P6SM SCT025=

USA.gov is the U.S. government's official web portal to all federal, state and local government web resources and services.